sensor_id;sensor_type;location;lat;lon;timestamp;pressure;altitude;pressure_sealevel;temperature;humidity
70468;BME280;57934;51.532;7.684;2024-02-15T00:00:15;100505.38;;;10.77;nan
70468;BME280;57934;51.532;7.684;2024-02-15T00:02:43;100499.22;;;10.69;nan
70468;BME280;57934;51.532;7.684;2024-02-15T00:05:12;100501.25;;;10.67;nan
70468;BME280;57934;51.532;7.684;2024-02-15T00:07:40;100503.88;;;10.67;nan
70468;BME280;57934;51.532;7.684;2024-02-15T00:10:06;100498.41;;;10.69;nan
70468;BME280;57934;51.532;7.684;2024-02-15T00:12:34;100494.44;;;10.58;nan
70468;BME280;57934;51.532;7.684;2024-02-15T00:15:01;100498.97;;;10.64;nan
70468;BME280;57934;51.532;7.684;2024-02-15T00:17:27;100503.97;;;10.59;nan
70468;BME280;57934;51.532;7.684;2024-02-15T00:19:55;100500.53;;;10.59;nan
70468;BME280;57934;51.532;7.684;2024-02-15T00:22:21;100499.13;;;10.63;nan
70468;BME280;57934;51.532;7.684;2024-02-15T00:24:47;100497.59;;;10.68;nan
70468;BME280;57934;51.532;7.684;2024-02-15T00:27:15;100503.22;;;10.65;nan
70468;BME280;57934;51.532;7.684;2024-02-15T00:29:42;100498.53;;;10.61;nan
70468;BME280;57934;51.532;7.684;2024-02-15T00:32:11;100502.22;;;10.66;nan
70468;BME280;57934;51.532;7.684;2024-02-15T00:34:37;100499.94;;;10.63;nan
70468;BME280;57934;51.532;7.684;2024-02-15T00:37:04;100507.50;;;10.66;nan
70468;BME280;57934;51.532;7.684;2024-02-15T00:39:31;100496.94;;;10.66;nan
70468;BME280;57934;51.532;7.684;2024-02-15T00:41:58;100501.03;;;10.69;nan
70468;BME280;57934;51.532;7.684;2024-02-15T00:44:26;100505.28;;;10.70;nan
70468;BME280;57934;51.532;7.684;2024-02-15T00:46:52;100498.97;;;10.64;nan
70468;BME280;57934;51.532;7.684;2024-02-15T00:49:18;100500.59;;;10.65;nan
70468;BME280;57934;51.532;7.684;2024-02-15T00:51:47;100509.31;;;10.66;nan
70468;BME280;57934;51.532;7.684;2024-02-15T00:54:15;100513.03;;;10.71;nan
70468;BME280;57934;51.532;7.684;2024-02-15T00:56:41;100509.22;;;10.74;nan
70468;BME280;57934;51.532;7.684;2024-02-15T00:59:07;100513.28;;;10.77;nan
70468;BME280;57934;51.532;7.684;2024-02-15T01:01:33;100508.28;;;10.60;nan
70468;BME280;57934;51.532;7.684;2024-02-15T01:03:59;100519.19;;;10.57;nan
70468;BME280;57934;51.532;7.684;2024-02-15T01:06:25;100518.03;;;10.66;nan
70468;BME280;57934;51.532;7.684;2024-02-15T01:08:51;100515.78;;;10.63;nan
70468;BME280;57934;51.532;7.684;2024-02-15T01:11:17;100521.06;;;10.63;nan
70468;BME280;57934;51.532;7.684;2024-02-15T01:13:43;100512.53;;;10.61;nan
70468;BME280;57934;51.532;7.684;2024-02-15T01:16:10;100520.06;;;10.64;nan
70468;BME280;57934;51.532;7.684;2024-02-15T01:18:35;100516.84;;;10.69;nan
70468;BME280;57934;51.532;7.684;2024-02-15T01:21:02;100519.69;;;10.67;nan
70468;BME280;57934;51.532;7.684;2024-02-15T01:23:28;100531.22;;;10.66;nan
70468;BME280;57934;51.532;7.684;2024-02-15T01:25:53;100523.00;;;10.76;nan
70468;BME280;57934;51.532;7.684;2024-02-15T01:28:19;100518.91;;;10.73;nan
70468;BME280;57934;51.532;7.684;2024-02-15T01:30:45;100517.81;;;10.61;nan
70468;BME280;57934;51.532;7.684;2024-02-15T01:33:12;100519.50;;;10.69;nan
70468;BME280;57934;51.532;7.684;2024-02-15T01:35:38;100517.31;;;10.72;nan
70468;BME280;57934;51.532;7.684;2024-02-15T01:38:07;100515.31;;;10.74;nan
70468;BME280;57934;51.532;7.684;2024-02-15T01:40:33;100515.91;;;10.77;nan
70468;BME280;57934;51.532;7.684;2024-02-15T01:43:00;100512.41;;;10.69;nan
70468;BME280;57934;51.532;7.684;2024-02-15T01:45:26;100521.94;;;10.70;nan
70468;BME280;57934;51.532;7.684;2024-02-15T01:47:54;100513.22;;;10.70;nan
70468;BME280;57934;51.532;7.684;2024-02-15T01:50:20;100516.22;;;10.67;nan
70468;BME280;57934;51.532;7.684;2024-02-15T01:52:47;100517.97;;;10.60;nan
70468;BME280;57934;51.532;7.684;2024-02-15T01:55:17;100514.78;;;10.64;nan
70468;BME280;57934;51.532;7.684;2024-02-15T01:57:44;100516.72;;;10.56;nan
70468;BME280;57934;51.532;7.684;2024-02-15T02:00:12;100514.88;;;10.56;nan
70468;BME280;57934;51.532;7.684;2024-02-15T02:02:39;100517.72;;;10.55;nan
70468;BME280;57934;51.532;7.684;2024-02-15T02:05:07;100515.75;;;10.57;nan
70468;BME280;57934;51.532;7.684;2024-02-15T02:07:34;100513.34;;;10.62;nan
70468;BME280;57934;51.532;7.684;2024-02-15T02:10:00;100514.16;;;10.62;nan
70468;BME280;57934;51.532;7.684;2024-02-15T02:12:26;100506.63;;;10.59;nan
70468;BME280;57934;51.532;7.684;2024-02-15T02:14:55;100502.28;;;10.73;nan
70468;BME280;57934;51.532;7.684;2024-02-15T02:17:21;100503.03;;;10.67;nan
70468;BME280;57934;51.532;7.684;2024-02-15T02:19:47;100500.41;;;10.67;nan
70468;BME280;57934;51.532;7.684;2024-02-15T02:22:16;100493.50;;;10.66;nan
70468;BME280;57934;51.532;7.684;2024-02-15T02:27:29;100495.06;;;10.82;nan
70468;BME280;57934;51.532;7.684;2024-02-15T02:29:57;100486.03;;;10.69;nan
70468;BME280;57934;51.532;7.684;2024-02-15T02:32:26;100489.09;;;10.73;nan
70468;BME280;57934;51.532;7.684;2024-02-15T02:34:52;100482.63;;;10.75;nan
70468;BME280;57934;51.532;7.684;2024-02-15T02:37:23;100487.72;;;10.77;nan
70468;BME280;57934;51.532;7.684;2024-02-15T02:39:50;100483.66;;;10.74;nan
70468;BME280;57934;51.532;7.684;2024-02-15T02:42:16;100485.66;;;10.72;nan
70468;BME280;57934;51.532;7.684;2024-02-15T02:44:42;100483.59;;;10.68;nan
70468;BME280;57934;51.532;7.684;2024-02-15T02:47:08;100487.66;;;10.70;nan
70468;BME280;57934;51.532;7.684;2024-02-15T02:52:04;100482.78;;;10.67;nan
70468;BME280;57934;51.532;7.684;2024-02-15T02:54:30;100478.63;;;10.58;nan
70468;BME280;57934;51.532;7.684;2024-02-15T02:56:56;100474.22;;;10.65;nan
70468;BME280;57934;51.532;7.684;2024-02-15T02:59:22;100471.72;;;10.57;nan
70468;BME280;57934;51.532;7.684;2024-02-15T03:01:48;100472.97;;;10.61;nan
70468;BME280;57934;51.532;7.684;2024-02-15T03:04:15;100467.13;;;10.66;nan
70468;BME280;57934;51.532;7.684;2024-02-15T03:06:45;100466.06;;;10.60;nan
70468;BME280;57934;51.532;7.684;2024-02-15T03:09:11;100468.31;;;10.63;nan
70468;BME280;57934;51.532;7.684;2024-02-15T03:11:40;100465.56;;;10.50;nan
70468;BME280;57934;51.532;7.684;2024-02-15T03:14:06;100460.38;;;10.57;nan
70468;BME280;57934;51.532;7.684;2024-02-15T03:16:32;100463.22;;;10.62;nan
70468;BME280;57934;51.532;7.684;2024-02-15T03:18:59;100467.44;;;10.56;nan
70468;BME280;57934;51.532;7.684;2024-02-15T03:21:28;100454.88;;;10.58;nan
70468;BME280;57934;51.532;7.684;2024-02-15T03:23:54;100460.91;;;10.52;nan
70468;BME280;57934;51.532;7.684;2024-02-15T03:26:31;100450.00;;;10.55;nan
70468;BME280;57934;51.532;7.684;2024-02-15T03:29:03;100446.47;;;10.48;nan
70468;BME280;57934;51.532;7.684;2024-02-15T03:31:29;100446.16;;;10.58;nan
70468;BME280;57934;51.532;7.684;2024-02-15T03:33:57;100447.34;;;10.55;nan
70468;BME280;57934;51.532;7.684;2024-02-15T03:36:25;100445.91;;;10.52;nan
70468;BME280;57934;51.532;7.684;2024-02-15T03:38:50;100439.66;;;10.54;nan
70468;BME280;57934;51.532;7.684;2024-02-15T03:41:19;100441.31;;;10.61;nan
70468;BME280;57934;51.532;7.684;2024-02-15T03:43:45;100435.78;;;10.56;nan
70468;BME280;57934;51.532;7.684;2024-02-15T03:46:13;100433.16;;;10.56;nan
70468;BME280;57934;51.532;7.684;2024-02-15T03:48:43;100433.13;;;10.49;nan
70468;BME280;57934;51.532;7.684;2024-02-15T03:51:09;100439.66;;;10.54;nan
70468;BME280;57934;51.532;7.684;2024-02-15T03:53:35;100441.28;;;10.55;nan
70468;BME280;57934;51.532;7.684;2024-02-15T03:56:06;100432.16;;;10.57;nan
70468;BME280;57934;51.532;7.684;2024-02-15T03:58:32;100440.31;;;10.62;nan
70468;BME280;57934;51.532;7.684;2024-02-15T04:00:59;100445.78;;;10.61;nan
70468;BME280;57934;51.532;7.684;2024-02-15T04:03:25;100437.44;;;10.57;nan
70468;BME280;57934;51.532;7.684;2024-02-15T04:05:51;100439.31;;;10.63;nan
70468;BME280;57934;51.532;7.684;2024-02-15T04:08:18;100449.41;;;10.60;nan
70468;BME280;57934;51.532;7.684;2024-02-15T04:10:44;100434.22;;;10.62;nan
70468;BME280;57934;51.532;7.684;2024-02-15T04:13:11;100437.44;;;10.57;nan
70468;BME280;57934;51.532;7.684;2024-02-15T04:15:37;100435.56;;;10.51;nan
70468;BME280;57934;51.532;7.684;2024-02-15T04:18:04;100440.47;;;10.54;nan
70468;BME280;57934;51.532;7.684;2024-02-15T04:20:30;100444.47;;;10.50;nan
70468;BME280;57934;51.532;7.684;2024-02-15T04:22:56;100435.94;;;10.48;nan
70468;BME280;57934;51.532;7.684;2024-02-15T04:25:23;100446.47;;;10.48;nan
70468;BME280;57934;51.532;7.684;2024-02-15T04:27:53;100448.00;;;10.57;nan
70468;BME280;57934;51.532;7.684;2024-02-15T04:30:20;100448.16;;;10.56;nan
70468;BME280;57934;51.532;7.684;2024-02-15T04:32:46;100443.16;;;10.61;nan
70468;BME280;57934;51.532;7.684;2024-02-15T04:35:12;100437.06;;;10.60;nan
70468;BME280;57934;51.532;7.684;2024-02-15T04:37:40;100436.38;;;10.51;nan
70468;BME280;57934;51.532;7.684;2024-02-15T04:40:06;100438.13;;;10.66;nan
70468;BME280;57934;51.532;7.684;2024-02-15T04:42:36;100438.19;;;10.72;nan
70468;BME280;57934;51.532;7.684;2024-02-15T04:45:06;100434.78;;;10.79;nan
70468;BME280;57934;51.532;7.684;2024-02-15T04:47:34;100438.75;;;10.68;nan
70468;BME280;57934;51.532;7.684;2024-02-15T04:50:00;100423.91;;;10.67;nan
70468;BME280;57934;51.532;7.684;2024-02-15T04:52:26;100426.56;;;10.67;nan
70468;BME280;57934;51.532;7.684;2024-02-15T04:54:52;100427.94;;;10.63;nan
70468;BME280;57934;51.532;7.684;2024-02-15T04:57:27;100424.47;;;10.84;nan
70468;BME280;57934;51.532;7.684;2024-02-15T04:59:54;100426.22;;;10.77;nan
70468;BME280;57934;51.532;7.684;2024-02-15T05:02:20;100426.06;;;10.78;nan
70468;BME280;57934;51.532;7.684;2024-02-15T05:04:47;100418.97;;;10.79;nan
70468;BME280;57934;51.532;7.684;2024-02-15T05:07:13;100425.69;;;10.81;nan
70468;BME280;57934;51.532;7.684;2024-02-15T05:09:42;100415.34;;;10.86;nan
70468;BME280;57934;51.532;7.684;2024-02-15T05:12:08;100418.81;;;10.87;nan
70468;BME280;57934;51.532;7.684;2024-02-15T05:14:34;100411.56;;;10.95;nan
70468;BME280;57934;51.532;7.684;2024-02-15T05:17:02;100423.66;;;10.83;nan
70468;BME280;57934;51.532;7.684;2024-02-15T05:19:28;100420.91;;;10.98;nan
70468;BME280;57934;51.532;7.684;2024-02-15T05:21:56;100413.75;;;10.85;nan
70468;BME280;57934;51.532;7.684;2024-02-15T05:24:22;100409.44;;;10.84;nan
70468;BME280;57934;51.532;7.684;2024-02-15T05:26:47;100406.84;;;10.91;nan
70468;BME280;57934;51.532;7.684;2024-02-15T05:29:15;100410.31;;;10.91;nan
70468;BME280;57934;51.532;7.684;2024-02-15T05:31:41;100418.03;;;10.93;nan
70468;BME280;57934;51.532;7.684;2024-02-15T05:34:07;100413.53;;;10.87;nan
70468;BME280;57934;51.532;7.684;2024-02-15T05:36:34;100411.53;;;10.89;nan
70468;BME280;57934;51.532;7.684;2024-02-15T05:39:00;100417.22;;;10.92;nan
70468;BME280;57934;51.532;7.684;2024-02-15T05:41:28;100415.19;;;10.94;nan
70468;BME280;57934;51.532;7.684;2024-02-15T05:43:55;100416.59;;;10.90;nan
70468;BME280;57934;51.532;7.684;2024-02-15T05:46:23;100415.16;;;10.88;nan
70468;BME280;57934;51.532;7.684;2024-02-15T05:48:49;100416.28;;;11.00;nan
70468;BME280;57934;51.532;7.684;2024-02-15T05:51:17;100412.22;;;11.04;nan
70468;BME280;57934;51.532;7.684;2024-02-15T05:53:43;100405.34;;;11.03;nan
70468;BME280;57934;51.532;7.684;2024-02-15T05:56:09;100405.38;;;11.10;nan
70468;BME280;57934;51.532;7.684;2024-02-15T05:58:40;100397.00;;;10.99;nan
70468;BME280;57934;51.532;7.684;2024-02-15T06:01:06;100394.34;;;10.99;nan
70468;BME280;57934;51.532;7.684;2024-02-15T06:03:37;100385.00;;;10.97;nan
70468;BME280;57934;51.532;7.684;2024-02-15T06:06:04;100383.53;;;10.94;nan
70468;BME280;57934;51.532;7.684;2024-02-15T06:08:34;100386.38;;;10.93;nan
70468;BME280;57934;51.532;7.684;2024-02-15T06:11:00;100389.63;;;10.95;nan
70468;BME280;57934;51.532;7.684;2024-02-15T06:13:30;100386.56;;;10.91;nan
70468;BME280;57934;51.532;7.684;2024-02-15T06:15:57;100391.28;;;10.96;nan
70468;BME280;57934;51.532;7.684;2024-02-15T06:18:25;100398.78;;;10.92;nan
70468;BME280;57934;51.532;7.684;2024-02-15T06:20:53;100403.78;;;10.87;nan
70468;BME280;57934;51.532;7.684;2024-02-15T06:23:20;100407.66;;;10.91;nan
70468;BME280;57934;51.532;7.684;2024-02-15T06:25:46;100406.19;;;10.82;nan
70468;BME280;57934;51.532;7.684;2024-02-15T06:28:15;100400.66;;;10.77;nan
70468;BME280;57934;51.532;7.684;2024-02-15T06:30:59;100401.31;;;10.79;nan
70468;BME280;57934;51.532;7.684;2024-02-15T06:33:44;100404.31;;;10.76;nan
70468;BME280;57934;51.532;7.684;2024-02-15T06:36:29;100408.59;;;10.77;nan
70468;BME280;57934;51.532;7.684;2024-02-15T06:39:13;100404.38;;;10.83;nan
70468;BME280;57934;51.532;7.684;2024-02-15T06:41:58;100406.09;;;10.69;nan
70468;BME280;57934;51.532;7.684;2024-02-15T06:44:24;100419.53;;;10.74;nan
70468;BME280;57934;51.532;7.684;2024-02-15T06:46:50;100416.16;;;10.87;nan
70468;BME280;57934;51.532;7.684;2024-02-15T06:49:16;100417.50;;;10.76;nan
70468;BME280;57934;51.532;7.684;2024-02-15T06:51:42;100420.53;;;10.73;nan
70468;BME280;57934;51.532;7.684;2024-02-15T06:54:10;100422.13;;;10.67;nan
70468;BME280;57934;51.532;7.684;2024-02-15T06:56:37;100425.00;;;10.72;nan
70468;BME280;57934;51.532;7.684;2024-02-15T06:59:03;100433.66;;;10.66;nan
70468;BME280;57934;51.532;7.684;2024-02-15T07:01:29;100429.59;;;10.64;nan
70468;BME280;57934;51.532;7.684;2024-02-15T07:03:56;100432.41;;;10.62;nan
70468;BME280;57934;51.532;7.684;2024-02-15T07:06:22;100428.72;;;10.57;nan
70468;BME280;57934;51.532;7.684;2024-02-15T07:08:48;100433.59;;;10.60;nan
70468;BME280;57934;51.532;7.684;2024-02-15T07:11:16;100436.50;;;10.65;nan
70468;BME280;57934;51.532;7.684;2024-02-15T07:13:42;100440.69;;;10.59;nan
70468;BME280;57934;51.532;7.684;2024-02-15T07:16:08;100438.25;;;10.58;nan
70468;BME280;57934;51.532;7.684;2024-02-15T07:18:34;100439.22;;;10.50;nan
70468;BME280;57934;51.532;7.684;2024-02-15T07:21:00;100441.63;;;10.51;nan
70468;BME280;57934;51.532;7.684;2024-02-15T07:23:27;100440.03;;;10.50;nan
70468;BME280;57934;51.532;7.684;2024-02-15T07:25:53;100445.41;;;10.42;nan
70468;BME280;57934;51.532;7.684;2024-02-15T07:28:20;100438.00;;;10.52;nan
70468;BME280;57934;51.532;7.684;2024-02-15T07:30:52;100438.78;;;10.46;nan
70468;BME280;57934;51.532;7.684;2024-02-15T07:33:18;100440.59;;;10.46;nan
70468;BME280;57934;51.532;7.684;2024-02-15T07:35:46;100433.88;;;10.43;nan
70468;BME280;57934;51.532;7.684;2024-02-15T07:38:12;100439.75;;;10.45;nan
70468;BME280;57934;51.532;7.684;2024-02-15T07:40:38;100429.41;;;10.44;nan
70468;BME280;57934;51.532;7.684;2024-02-15T07:43:05;100434.09;;;10.48;nan
70468;BME280;57934;51.532;7.684;2024-02-15T07:45:32;100439.38;;;10.48;nan
70468;BME280;57934;51.532;7.684;2024-02-15T07:48:01;100430.50;;;10.49;nan
70468;BME280;57934;51.532;7.684;2024-02-15T07:50:27;100431.84;;;10.45;nan
70468;BME280;57934;51.532;7.684;2024-02-15T07:52:54;100433.94;;;10.50;nan
70468;BME280;57934;51.532;7.684;2024-02-15T07:55:20;100433.88;;;10.43;nan
70468;BME280;57934;51.532;7.684;2024-02-15T07:57:46;100429.16;;;10.60;nan
70468;BME280;57934;51.532;7.684;2024-02-15T08:00:14;100419.47;;;10.67;nan
70468;BME280;57934;51.532;7.684;2024-02-15T08:02:45;100413.78;;;10.64;nan
70468;BME280;57934;51.532;7.684;2024-02-15T08:05:12;100408.41;;;10.79;nan
70468;BME280;57934;51.532;7.684;2024-02-15T08:07:42;100401.03;;;10.67;nan
70468;BME280;57934;51.532;7.684;2024-02-15T08:10:10;100389.97;;;10.57;nan
70468;BME280;57934;51.532;7.684;2024-02-15T08:15:07;100368.16;;;10.70;nan
70468;BME280;57934;51.532;7.684;2024-02-15T08:17:41;100364.38;;;10.79;nan
70468;BME280;57934;51.532;7.684;2024-02-15T08:20:10;100351.41;;;10.78;nan
70468;BME280;57934;51.532;7.684;2024-02-15T08:22:36;100346.53;;;10.81;nan
70468;BME280;57934;51.532;7.684;2024-02-15T08:25:14;100340.84;;;10.78;nan
70468;BME280;57934;51.532;7.684;2024-02-15T08:27:47;100351.41;;;10.78;nan
70468;BME280;57934;51.532;7.684;2024-02-15T08:30:16;100345.78;;;10.94;nan
70468;BME280;57934;51.532;7.684;2024-02-15T08:32:43;100351.63;;;10.83;nan
70468;BME280;57934;51.532;7.684;2024-02-15T08:35:10;100355.28;;;10.82;nan
70468;BME280;57934;51.532;7.684;2024-02-15T08:37:37;100353.81;;;10.79;nan
70468;BME280;57934;51.532;7.684;2024-02-15T08:40:04;100369.50;;;10.87;nan
70468;BME280;57934;51.532;7.684;2024-02-15T08:42:30;100369.66;;;10.79;nan
70468;BME280;57934;51.532;7.684;2024-02-15T08:44:57;100371.25;;;11.08;nan
70468;BME280;57934;51.532;7.684;2024-02-15T08:47:25;100371.69;;;11.12;nan
70468;BME280;57934;51.532;7.684;2024-02-15T08:49:51;100370.25;;;11.09;nan
70468;BME280;57934;51.532;7.684;2024-02-15T08:52:17;100373.31;;;11.13;nan
70468;BME280;57934;51.532;7.684;2024-02-15T08:54:44;100380.25;;;11.20;nan
70468;BME280;57934;51.532;7.684;2024-02-15T08:57:10;100378.50;;;11.34;nan
70468;BME280;57934;51.532;7.684;2024-02-15T08:59:38;100389.16;;;11.54;nan
70468;BME280;57934;51.532;7.684;2024-02-15T09:02:04;100384.25;;;11.51;nan
70468;BME280;57934;51.532;7.684;2024-02-15T09:04:31;100388.00;;;11.70;nan
70468;BME280;57934;51.532;7.684;2024-02-15T09:06:57;100384.16;;;11.73;nan
70468;BME280;57934;51.532;7.684;2024-02-15T09:09:23;100382.91;;;11.68;nan
70468;BME280;57934;51.532;7.684;2024-02-15T09:11:49;100386.13;;;11.57;nan
70468;BME280;57934;51.532;7.684;2024-02-15T09:14:15;100385.13;;;11.58;nan
70468;BME280;57934;51.532;7.684;2024-02-15T09:16:41;100378.97;;;11.51;nan
70468;BME280;57934;51.532;7.684;2024-02-15T09:19:06;100389.09;;;11.47;nan
70468;BME280;57934;51.532;7.684;2024-02-15T09:21:32;100387.69;;;11.45;nan
70468;BME280;57934;51.532;7.684;2024-02-15T09:23:59;100386.28;;;11.49;nan
70468;BME280;57934;51.532;7.684;2024-02-15T09:26:25;100380.84;;;11.57;nan
70468;BME280;57934;51.532;7.684;2024-02-15T09:28:53;100380.06;;;11.70;nan
70468;BME280;57934;51.532;7.684;2024-02-15T09:31:19;100382.13;;;11.75;nan
70468;BME280;57934;51.532;7.684;2024-02-15T09:33:45;100378.22;;;11.64;nan
70468;BME280;57934;51.532;7.684;2024-02-15T09:36:11;100381.59;;;11.51;nan
70468;BME280;57934;51.532;7.684;2024-02-15T09:38:38;100377.19;;;11.58;nan
70468;BME280;57934;51.532;7.684;2024-02-15T09:41:04;100385.91;;;11.52;nan
70468;BME280;57934;51.532;7.684;2024-02-15T09:43:35;100381.44;;;11.53;nan
70468;BME280;57934;51.532;7.684;2024-02-15T09:46:01;100379.81;;;11.52;nan
70468;BME280;57934;51.532;7.684;2024-02-15T09:48:32;100379.22;;;11.56;nan
70468;BME280;57934;51.532;7.684;2024-02-15T09:50:58;100371.91;;;11.58;nan
70468;BME280;57934;51.532;7.684;2024-02-15T09:53:26;100380.03;;;11.57;nan
70468;BME280;57934;51.532;7.684;2024-02-15T09:55:53;100366.84;;;11.63;nan
70468;BME280;57934;51.532;7.684;2024-02-15T09:58:20;100367.47;;;11.65;nan
70468;BME280;57934;51.532;7.684;2024-02-15T10:00:49;100376.59;;;11.63;nan
70468;BME280;57934;51.532;7.684;2024-02-15T10:03:18;100382.66;;;11.57;nan
70468;BME280;57934;51.532;7.684;2024-02-15T10:05:48;100374.56;;;11.58;nan
70468;BME280;57934;51.532;7.684;2024-02-15T10:08:15;100370.13;;;11.65;nan
70468;BME280;57934;51.532;7.684;2024-02-15T10:10:41;100374.31;;;11.53;nan
70468;BME280;57934;51.532;7.684;2024-02-15T10:13:13;100375.38;;;11.59;nan
70468;BME280;57934;51.532;7.684;2024-02-15T10:15:39;100372.53;;;11.67;nan
70468;BME280;57934;51.532;7.684;2024-02-15T10:18:08;100370.25;;;11.57;nan
70468;BME280;57934;51.532;7.684;2024-02-15T10:20:36;100368.44;;;11.58;nan
70468;BME280;57934;51.532;7.684;2024-02-15T10:23:12;100367.50;;;11.79;nan
70468;BME280;57934;51.532;7.684;2024-02-15T10:25:40;100365.13;;;11.84;nan
70468;BME280;57934;51.532;7.684;2024-02-15T10:28:14;100360.50;;;12.12;nan
70468;BME280;57934;51.532;7.684;2024-02-15T10:30:42;100353.41;;;12.33;nan
70468;BME280;57934;51.532;7.684;2024-02-15T10:33:09;100350.13;;;12.51;nan
70468;BME280;57934;51.532;7.684;2024-02-15T10:35:35;100347.44;;;12.77;nan
70468;BME280;57934;51.532;7.684;2024-02-15T10:38:12;100348.88;;;12.86;nan
70468;BME280;57934;51.532;7.684;2024-02-15T10:40:40;100352.53;;;12.85;nan
70468;BME280;57934;51.532;7.684;2024-02-15T10:43:10;100344.38;;;13.00;nan
70468;BME280;57934;51.532;7.684;2024-02-15T10:45:39;100351.47;;;13.13;nan
70468;BME280;57934;51.532;7.684;2024-02-15T10:48:15;100346.19;;;13.06;nan
70468;BME280;57934;51.532;7.684;2024-02-15T10:50:41;100347.00;;;13.00;nan
70468;BME280;57934;51.532;7.684;2024-02-15T10:53:24;100351.31;;;12.88;nan
70468;BME280;57934;51.532;7.684;2024-02-15T10:56:12;100347.03;;;12.87;nan
70468;BME280;57934;51.532;7.684;2024-02-15T10:58:46;100347.50;;;12.71;nan
70468;BME280;57934;51.532;7.684;2024-02-15T11:01:17;100343.00;;;12.64;nan
70468;BME280;57934;51.532;7.684;2024-02-15T11:03:59;100347.28;;;12.65;nan
70468;BME280;57934;51.532;7.684;2024-02-15T11:06:30;100340.13;;;12.73;nan
70468;BME280;57934;51.532;7.684;2024-02-15T11:08:56;100336.66;;;12.85;nan
70468;BME280;57934;51.532;7.684;2024-02-15T11:11:23;100335.19;;;13.03;nan
70468;BME280;57934;51.532;7.684;2024-02-15T11:13:49;100339.06;;;13.07;nan
70468;BME280;57934;51.532;7.684;2024-02-15T11:16:43;100335.59;;;13.13;nan
70468;BME280;57934;51.532;7.684;2024-02-15T11:19:09;100331.28;;;13.12;nan
70468;BME280;57934;51.532;7.684;2024-02-15T11:21:55;100325.56;;;13.22;nan
70468;BME280;57934;51.532;7.684;2024-02-15T11:24:32;100333.50;;;13.35;nan
70468;BME280;57934;51.532;7.684;2024-02-15T11:26:59;100327.78;;;13.38;nan
70468;BME280;57934;51.532;7.684;2024-02-15T11:29:56;100325.97;;;13.32;nan
70468;BME280;57934;51.532;7.684;2024-02-15T11:32:43;100322.91;;;13.35;nan
70468;BME280;57934;51.532;7.684;2024-02-15T11:35:11;100320.91;;;13.24;nan
70468;BME280;57934;51.532;7.684;2024-02-15T11:37:51;100320.69;;;13.25;nan
70468;BME280;57934;51.532;7.684;2024-02-15T11:43:07;100314.34;;;13.26;nan
70468;BME280;57934;51.532;7.684;2024-02-15T11:45:34;100308.09;;;13.07;nan
70468;BME280;57934;51.532;7.684;2024-02-15T11:48:11;100299.50;;;13.19;nan
70468;BME280;57934;51.532;7.684;2024-02-15T11:50:38;100303.19;;;13.18;nan
70468;BME280;57934;51.532;7.684;2024-02-15T11:53:06;100302.75;;;13.21;nan
70468;BME280;57934;51.532;7.684;2024-02-15T11:55:36;100298.06;;;13.29;nan
70468;BME280;57934;51.532;7.684;2024-02-15T11:58:04;100293.41;;;13.25;nan
70468;BME280;57934;51.532;7.684;2024-02-15T12:00:42;100297.47;;;13.21;nan
70468;BME280;57934;51.532;7.684;2024-02-15T12:03:28;100296.84;;;13.32;nan
70468;BME280;57934;51.532;7.684;2024-02-15T12:06:17;100300.50;;;13.31;nan
70468;BME280;57934;51.532;7.684;2024-02-15T12:09:02;100292.19;;;13.27;nan
70468;BME280;57934;51.532;7.684;2024-02-15T12:11:47;100298.25;;;13.34;nan
70468;BME280;57934;51.532;7.684;2024-02-15T12:14:31;100295.56;;;13.41;nan
70468;BME280;57934;51.532;7.684;2024-02-15T12:17:15;100288.25;;;13.36;nan
70468;BME280;57934;51.532;7.684;2024-02-15T12:20:01;100294.56;;;13.35;nan
70468;BME280;57934;51.532;7.684;2024-02-15T12:22:35;100288.44;;;13.42;nan
70468;BME280;57934;51.532;7.684;2024-02-15T12:25:06;100284.53;;;13.44;nan
70468;BME280;57934;51.532;7.684;2024-02-15T12:27:40;100278.66;;;13.42;nan
70468;BME280;57934;51.532;7.684;2024-02-15T12:30:06;100279.22;;;13.44;nan
70468;BME280;57934;51.532;7.684;2024-02-15T12:32:34;100277.91;;;13.67;nan
70468;BME280;57934;51.532;7.684;2024-02-15T12:35:11;100277.50;;;13.63;nan
70468;BME280;57934;51.532;7.684;2024-02-15T12:38:01;100273.38;;;13.74;nan
70468;BME280;57934;51.532;7.684;2024-02-15T12:40:32;100267.84;;;13.75;nan
70468;BME280;57934;51.532;7.684;2024-02-15T12:42:59;100262.50;;;13.82;nan
70468;BME280;57934;51.532;7.684;2024-02-15T12:45:32;100258.13;;;13.94;nan
70468;BME280;57934;51.532;7.684;2024-02-15T12:47:58;100258.09;;;14.01;nan
70468;BME280;57934;51.532;7.684;2024-02-15T12:50:28;100254.50;;;14.14;nan
70468;BME280;57934;51.532;7.684;2024-02-15T12:52:54;100250.59;;;14.16;nan
70468;BME280;57934;51.532;7.684;2024-02-15T12:55:31;100245.53;;;14.15;nan
70468;BME280;57934;51.532;7.684;2024-02-15T12:58:01;100252.16;;;14.24;nan
70468;BME280;57934;51.532;7.684;2024-02-15T13:00:31;100243.53;;;14.28;nan
70468;BME280;57934;51.532;7.684;2024-02-15T13:03:02;100237.88;;;14.25;nan
70468;BME280;57934;51.532;7.684;2024-02-15T13:05:30;100243.16;;;14.25;nan
70468;BME280;57934;51.532;7.684;2024-02-15T13:07:57;100235.22;;;14.25;nan
70468;BME280;57934;51.532;7.684;2024-02-15T13:10:24;100234.53;;;14.36;nan
70468;BME280;57934;51.532;7.684;2024-02-15T13:12:52;100224.28;;;14.40;nan
70468;BME280;57934;51.532;7.684;2024-02-15T13:15:18;100222.94;;;14.49;nan
70468;BME280;57934;51.532;7.684;2024-02-15T13:17:47;100226.53;;;14.61;nan
70468;BME280;57934;51.532;7.684;2024-02-15T13:20:20;100215.41;;;14.71;nan
70468;BME280;57934;51.532;7.684;2024-02-15T13:22:53;100218.13;;;14.83;nan
70468;BME280;57934;51.532;7.684;2024-02-15T13:25:22;100224.66;;;14.80;nan
70468;BME280;57934;51.532;7.684;2024-02-15T13:27:48;100219.28;;;14.87;nan